Time;durP1;ratioP1;P1;durP2;ratioP2;P2;SDS_P1;SDS_P2;PMS_P1;PMS_P2;Temp;Humidity;BMP_temperature;BMP_pressure;BME280_temperature;BME280_humidity;BME280_pressure;Samples;Min_cycle;Max_cycle;Signal;HPM_P1;HPM_P2
2022/08/10 00:01:52;;;;;;;3.05;1.98;;;;;;;18.06;64.54;100014.53;5031995;28;20591;-70
2022/08/10 00:04:20;;;;;;;2.93;1.70;;;;;;;18.09;64.60;100013.00;5032300;28;20111;-71
2022/08/10 00:06:53;;;;;;;4.60;1.95;;;;;;;18.09;64.33;100007.38;5032183;28;20045;-71
2022/08/10 00:09:22;;;;;;;3.13;1.70;;;;;;;18.08;64.39;100005.72;5032022;28;20054;-70
2022/08/10 00:11:49;;;;;;;7.95;2.20;;;;;;;18.02;64.57;100010.00;5032191;28;20129;-70
2022/08/10 00:14:17;;;;;;;5.13;1.95;;;;;;;18.02;64.69;100019.28;5032265;28;20045;-70
2022/08/10 00:16:45;;;;;;;4.82;1.80;;;;;;;18.03;64.92;100020.13;5032201;28;20060;-71
2022/08/10 00:19:13;;;;;;;4.60;1.80;;;;;;;18.01;64.53;100016.84;5031923;28;20041;-71
2022/08/10 00:21:43;;;;;;;17.65;5.32;;;;;;;17.95;64.86;100010.66;5032090;28;20057;-70
2022/08/10 00:24:12;;;;;;;7.30;3.65;;;;;;;17.96;65.00;100014.31;5030894;28;20053;-70
2022/08/10 00:26:40;;;;;;;7.55;3.13;;;;;;;17.97;64.88;100010.34;5032181;28;20463;-71
2022/08/10 00:29:27;;;;;;;6.78;1.85;;;;;;;17.99;64.65;100019.19;5017045;28;20057;-70
2022/08/10 00:31:53;;;;;;;3.67;1.70;;;;;;;17.99;64.53;100010.75;5031952;28;20532;-70
2022/08/10 00:34:29;;;;;;;3.17;1.73;;;;;;;17.97;64.66;100010.34;5032183;28;20050;-69
2022/08/10 00:36:56;;;;;;;3.55;1.88;;;;;;;17.90;64.89;100016.63;5034010;28;20054;-70
2022/08/10 00:39:23;;;;;;;5.78;1.73;;;;;;;17.90;64.85;100013.81;5035531;28;20049;-71
2022/08/10 00:41:56;;;;;;;2.83;1.67;;;;;;;17.91;64.71;100011.78;5018872;28;20049;-71
2022/08/10 00:44:36;;;;;;;3.50;1.67;;;;;;;17.90;64.68;100021.41;5035278;28;20059;-71
2022/08/10 00:47:05;;;;;;;3.13;1.63;;;;;;;17.93;64.53;100023.50;5018408;28;20053;-71
2022/08/10 00:49:32;;;;;;;3.67;1.52;;;;;;;17.91;64.51;100023.03;5035497;28;20049;-71
2022/08/10 00:52:00;;;;;;;2.33;1.40;;;;;;;17.83;64.86;100016.44;5035726;28;20052;-68
2022/08/10 00:54:28;;;;;;;2.90;1.90;;;;;;;17.81;64.77;100015.19;5035155;28;20045;-68
2022/08/10 00:56:55;;;;;;;2.90;1.80;;;;;;;17.78;64.91;100013.94;5035485;28;20045;-68
2022/08/10 00:59:43;;;;;;;3.72;1.70;;;;;;;17.75;64.89;100009.06;5034552;28;20046;-68
2022/08/10 01:02:28;;;;;;;3.88;1.40;;;;;;;17.76;64.92;100013.50;5035271;28;20053;-68
2022/08/10 01:05:02;;;;;;;1.83;1.38;;;;;;;17.74;64.82;100009.44;5035439;28;20509;-77
2022/08/10 01:07:57;;;;;;;3.42;1.63;;;;;;;17.76;64.75;100009.84;5035271;28;20816;-76
2022/08/10 01:10:52;;;;;;;6.85;3.30;;;;;;;17.73;64.74;100010.59;5035610;28;20124;-77
2022/08/10 01:13:48;;;;;;;2.20;1.33;;;;;;;17.68;64.88;100014.50;5035265;28;20464;-77
2022/08/10 01:16:33;;;;;;;8.57;1.42;;;;;;;17.63;65.13;100017.63;5034635;28;20058;-76
2022/08/10 01:19:25;;;;;;;2.17;1.30;;;;;;;17.60;65.08;100011.91;5034663;28;20064;-76
2022/08/10 01:21:57;;;;;;;2.25;1.40;;;;;;;17.53;65.53;100015.38;5033728;28;20469;-76
2022/08/10 01:24:27;;;;;;;2.22;1.50;;;;;;;17.51;65.40;100002.88;5035259;28;20056;-77
2022/08/10 01:27:11;;;;;;;6.30;1.67;;;;;;;17.51;65.28;100003.69;5035253;28;20042;-77
2022/08/10 01:29:41;;;;;;;3.38;1.67;;;;;;;17.50;65.58;100006.88;5035282;28;20087;-77
2022/08/10 01:32:12;;;;;;;2.28;1.60;;;;;;;17.47;65.34;100001.97;5034773;28;20052;-78
2022/08/10 01:34:49;;;;;;;3.40;1.90;;;;;;;17.54;65.36;99999.31;5033854;28;20495;-77
2022/08/10 01:37:22;;;;;;;2.63;1.67;;;;;;;17.53;65.26;100012.56;5033529;28;20053;-77
2022/08/10 01:39:55;;;;;;;4.38;1.88;;;;;;;17.49;65.37;100010.84;5035176;28;20049;-77
2022/08/10 01:42:23;;;;;;;3.80;1.75;;;;;;;17.45;65.53;100016.41;5035059;28;20144;-76
2022/08/10 01:44:55;;;;;;;5.77;1.80;;;;;;;17.46;65.45;100018.03;5034583;28;20547;-69
2022/08/10 01:50:31;;;;;;;4.57;1.50;;;;;;;17.46;65.46;100011.59;5034812;28;20459;-69
2022/08/10 01:53:06;;;;;;;3.83;1.90;;;;;;;17.50;65.41;100024.53;5034192;28;20107;-69
2022/08/10 01:55:40;;;;;;;7.00;1.80;;;;;;;17.54;65.14;100030.25;5034631;28;20489;-68
2022/08/10 01:58:09;;;;;;;5.00;1.47;;;;;;;17.53;65.18;100021.00;5034297;28;20398;-68
2022/08/10 02:00:39;;;;;;;4.15;1.95;;;;;;;17.54;65.21;100019.00;5034321;28;20057;-68
2022/08/10 02:03:10;;;;;;;2.40;1.67;;;;;;;17.56;65.08;100020.25;5033962;28;20045;-68
2022/08/10 02:05:42;;;;;;;2.85;1.65;;;;;;;17.54;64.88;100017.03;5033444;28;20111;-69
2022/08/10 02:08:13;;;;;;;2.03;1.30;;;;;;;17.53;65.12;100023.81;5034462;28;20092;-70
2022/08/10 02:10:43;;;;;;;3.03;1.70;;;;;;;17.52;64.98;100029.81;5034389;28;20155;-69
2022/08/10 02:13:42;;;;;;;2.83;1.90;;;;;;;17.49;65.14;100028.56;5032922;28;20136;-68
2022/08/10 02:16:15;;;;;;;3.75;1.75;;;;;;;17.50;65.15;100029.38;5033419;28;20405;-69
2022/08/10 02:18:44;;;;;;;3.50;1.75;;;;;;;17.53;65.05;100026.63;5033933;28;20041;-70
2022/08/10 02:21:12;;;;;;;3.30;1.58;;;;;;;17.58;64.80;100037.59;5032374;28;20432;-69
2022/08/10 02:23:42;;;;;;;5.38;1.38;;;;;;;17.62;64.76;100043.31;5033675;28;20056;-69
2022/08/10 02:26:18;;;;;;;3.67;1.87;;;;;;;17.70;64.45;100042.28;5034083;28;20053;-69
2022/08/10 02:28:46;;;;;;;3.45;1.45;;;;;;;17.81;64.29;100044.16;5033706;28;20104;-69
2022/08/10 02:31:17;;;;;;;10.27;1.90;;;;;;;17.94;63.84;100033.56;5033451;28;20053;-69
2022/08/10 02:33:50;;;;;;;4.00;1.42;;;;;;;17.98;63.94;100034.47;5033469;28;20045;-68
2022/08/10 02:36:30;;;;;;;7.20;1.95;;;;;;;18.03;63.63;100039.81;5033501;28;20497;-69
2022/08/10 02:39:00;;;;;;;5.03;1.63;;;;;;;18.03;63.57;100031.38;5033275;28;20048;-70
2022/08/10 02:41:36;;;;;;;3.92;1.70;;;;;;;18.05;63.55;100034.63;5032256;28;20080;-70
2022/08/10 02:44:30;;;;;;;8.40;1.60;;;;;;;18.04;63.68;100039.44;5033167;28;20455;-77
2022/08/10 02:47:38;;;;;;;3.08;1.40;;;;;;;18.04;63.49;100038.63;5033328;28;20596;-77
2022/08/10 02:50:34;;;;;;;3.45;1.65;;;;;;;18.06;63.62;100039.06;5016519;28;20593;-75
2022/08/10 02:53:03;;;;;;;6.75;1.73;;;;;;;18.14;63.42;100041.66;5033290;28;20413;-71
2022/08/10 02:56:11;;;;;;;7.30;2.00;;;;;;;18.15;63.19;100037.66;5032097;28;20060;-71
2022/08/10 02:58:57;;;;;;;9.63;1.80;;;;;;;18.14;63.04;100038.03;5011144;28;20057;-71
2022/08/10 03:01:32;;;;;;;6.15;1.70;;;;;;;18.12;63.39;100038.38;5011143;28;20084;-70
2022/08/10 03:04:18;;;;;;;6.43;2.08;;;;;;;18.05;63.30;100043.06;5011601;28;20061;-70
2022/08/10 03:07:09;;;;;;;7.68;1.80;;;;;;;17.98;63.72;100035.31;5011060;28;20425;-70
2022/08/10 03:09:39;;;;;;;15.02;1.90;;;;;;;17.95;63.67;100040.84;5011319;28;20429;-71
2022/08/10 03:12:12;;;;;;;3.17;1.48;;;;;;;17.88;63.80;100037.84;5010868;28;20575;-70
2022/08/10 03:14:59;;;;;;;;;;;;;;;17.77;64.09;100042.47;5011051;28;20914;-70
2022/08/10 03:17:29;;;;;;;5.43;1.88;;;;;;;17.84;64.08;100039.78;5011267;28;19925;-71
2022/08/10 03:19:59;;;;;;;16.75;2.97;;;;;;;17.91;63.99;100040.75;4994369;28;20061;-70
2022/08/10 03:22:51;;;;;;;6.30;2.42;;;;;;;17.93;63.85;100043.19;4998425;28;20062;-70
2022/08/10 03:25:21;;;;;;;4.72;1.45;;;;;;;17.97;63.87;100033.66;4978569;28;20119;-70
2022/08/10 03:27:48;;;;;;;4.32;2.13;;;;;;;17.99;63.68;100034.09;5010634;28;20037;-70
2022/08/10 03:30:16;;;;;;;5.45;2.10;;;;;;;18.00;63.70;100037.75;5010095;28;20065;-70
2022/08/10 03:33:04;;;;;;;7.28;2.08;;;;;;;18.11;63.57;100028.31;5012976;28;20112;-71
2022/08/10 03:35:31;;;;;;;11.70;2.10;;;;;;;18.28;62.93;100038.31;5013210;28;20078;-70
2022/08/10 03:37:59;;;;;;;3.60;1.98;;;;;;;18.31;62.68;100037.56;5012780;28;20053;-70
2022/08/10 03:40:34;;;;;;;8.90;2.60;;;;;;;18.36;62.58;100040.09;5012673;28;20049;-70
2022/08/10 03:43:18;;;;;;;10.98;2.45;;;;;;;18.33;62.58;100045.66;5011437;28;20064;-71
2022/08/10 03:45:49;;;;;;;6.80;2.35;;;;;;;18.30;62.61;100052.03;4995734;28;20058;-71
2022/08/10 03:48:25;;;;;;;2.10;1.65;;;;;;;18.34;62.52;100053.72;5012763;28;20520;-71
2022/08/10 03:51:16;;;;;;;7.03;1.98;;;;;;;18.47;62.12;100049.59;4999193;28;20050;-71
2022/08/10 03:53:43;;;;;;;7.68;2.03;;;;;;;18.71;61.50;100051.25;5012374;28;20046;-70
2022/08/10 03:56:32;;;;;;;5.03;2.22;;;;;;;18.88;61.17;100043.13;5013033;28;20045;-71
2022/08/10 03:59:00;;;;;;;11.05;2.30;;;;;;;19.00;60.79;100042.94;5012687;28;20050;-70
2022/08/10 04:01:28;;;;;;;4.35;2.50;;;;;;;19.12;60.33;100044.72;5023948;28;20420;-70
2022/08/10 04:04:16;;;;;;;2.90;1.90;;;;;;;19.14;60.39;100045.16;5032060;28;20057;-70
2022/08/10 04:06:51;;;;;;;6.40;1.98;;;;;;;19.14;60.20;100045.16;5032037;28;20049;-70
2022/08/10 04:09:28;;;;;;;7.20;2.00;;;;;;;19.14;60.12;100046.00;5030952;28;20512;-70
2022/08/10 04:12:15;;;;;;;10.95;1.75;;;;;;;19.14;60.11;100042.34;5036290;28;20497;-70
2022/08/10 04:14:43;;;;;;;6.07;2.00;;;;;;;19.13;59.89;100035.09;5035376;28;20552;-70
2022/08/10 04:17:18;;;;;;;5.50;1.85;;;;;;;19.01;60.10;100038.91;5034860;28;20041;-70
2022/08/10 04:20:09;;;;;;;3.13;1.48;;;;;;;18.96;60.29;100039.25;5036218;28;20049;-71
2022/08/10 04:22:38;;;;;;;9.38;1.75;;;;;;;18.91;60.46;100045.19;5036156;28;20068;-71
2022/08/10 04:25:07;;;;;;;11.20;1.83;;;;;;;18.92;60.37;100052.44;5036690;28;20041;-71
2022/08/10 04:27:34;;;;;;;6.60;1.77;;;;;;;18.97;60.32;100060.59;5036113;28;20077;-71
2022/08/10 04:30:01;;;;;;;2.60;1.38;;;;;;;19.07;59.21;100065.59;5017922;28;20343;-71
2022/08/10 04:32:37;;;;;;;7.20;1.40;;;;;;;19.14;58.73;100065.75;5014699;28;20104;-71
2022/08/10 04:35:09;;;;;;;3.42;1.83;;;;;;;19.24;58.09;100061.44;5015226;28;20385;-71
2022/08/10 04:37:40;;;;;;;2.22;1.30;;;;;;;19.38;57.69;100059.72;5014827;28;20043;-70
2022/08/10 04:40:16;;;;;;;3.85;1.55;;;;;;;19.47;57.25;100060.28;5015987;28;20041;-71
2022/08/10 04:42:58;;;;;;;3.15;1.67;;;;;;;19.61;56.92;100068.97;5015661;28;20058;-71
2022/08/10 04:45:28;;;;;;;6.63;1.38;;;;;;;19.73;56.59;100068.75;5015040;28;20076;-71
2022/08/10 04:48:15;;;;;;;3.15;1.30;;;;;;;19.78;56.12;100062.75;5015786;28;20054;-72
2022/08/10 04:51:02;;;;;;;2.92;1.50;;;;;;;20.00;55.62;100063.88;5029885;28;20064;-72
2022/08/10 04:53:47;;;;;;;4.25;1.20;;;;;;;20.27;54.70;100056.97;5035551;28;20054;-72
2022/08/10 04:56:32;;;;;;;7.88;1.60;;;;;;;20.44;54.40;100064.06;5035049;28;20467;-72
2022/08/10 04:59:15;;;;;;;4.38;1.60;;;;;;;20.47;53.83;100066.94;5034598;28;20058;-71
2022/08/10 05:01:44;;;;;;;3.30;1.20;;;;;;;20.45;53.65;100068.50;5035210;28;20575;-71
2022/08/10 05:04:31;;;;;;;2.15;1.40;;;;;;;20.48;53.82;100068.53;5035404;28;20053;-72
2022/08/10 05:07:09;;;;;;;5.63;1.42;;;;;;;20.53;53.26;100058.91;5035569;28;20061;-71
2022/08/10 05:09:42;;;;;;;2.95;1.40;;;;;;;20.57;53.41;100059.78;5035339;28;20087;-71
2022/08/10 05:12:37;;;;;;;2.50;1.33;;;;;;;20.53;53.26;100053.25;5034777;28;20393;-72
2022/08/10 05:15:10;;;;;;;2.53;1.40;;;;;;;20.48;53.33;100060.06;5035177;28;20053;-72
2022/08/10 05:17:39;;;;;;;4.07;1.45;;;;;;;20.37;53.32;100047.81;5035224;28;20543;-71
2022/08/10 05:20:08;;;;;;;3.33;1.40;;;;;;;20.29;53.48;100042.47;5035156;28;20045;-71
2022/08/10 05:22:41;;;;;;;5.93;2.35;;;;;;;20.30;53.45;100046.91;5034502;28;20135;-72
2022/08/10 05:25:15;;;;;;;2.47;1.50;;;;;;;20.37;53.00;100041.38;5033671;28;20052;-70
2022/08/10 05:27:46;;;;;;;6.80;1.50;;;;;;;20.42;53.13;100039.00;5033973;28;20045;-69
2022/08/10 05:30:25;;;;;;;2.47;1.52;;;;;;;20.52;52.83;100040.34;5035094;28;20091;-69
2022/08/10 05:32:52;;;;;;;2.97;1.50;;;;;;;20.59;53.02;100040.41;5034503;28;20046;-69
2022/08/10 05:35:27;;;;;;;5.65;1.40;;;;;;;20.69;52.43;100032.03;5033689;28;20464;-69
2022/08/10 05:38:16;;;;;;;4.70;1.55;;;;;;;20.74;52.32;100037.34;5033296;28;20073;-68
2022/08/10 05:40:43;;;;;;;5.03;1.50;;;;;;;20.82;52.31;100035.41;5034633;28;20046;-69
2022/08/10 05:43:19;;;;;;;5.20;1.67;;;;;;;20.82;51.98;100052.38;5034111;28;20148;-70
2022/08/10 05:45:48;;;;;;;2.75;1.40;;;;;;;20.74;52.18;100037.34;5034395;28;20046;-69
2022/08/10 05:48:36;;;;;;;2.40;1.40;;;;;;;20.75;51.98;100038.97;5019975;28;20397;-69
2022/08/10 05:51:26;;;;;;;6.13;1.50;;;;;;;20.81;51.83;100050.75;5034243;28;20056;-69
2022/08/10 05:53:54;;;;;;;3.05;1.70;;;;;;;20.97;51.75;100052.16;5033175;28;20049;-70
2022/08/10 05:56:30;;;;;;;2.88;1.70;;;;;;;21.38;50.75;100056.53;5034670;28;20064;-70
2022/08/10 05:59:18;;;;;;;3.92;1.40;;;;;;;21.79;49.90;100054.41;5034325;28;20511;-69
2022/08/10 06:02:06;;;;;;;6.80;1.20;;;;;;;22.09;49.14;100057.84;5034137;28;20518;-70
2022/08/10 06:04:57;;;;;;;3.93;1.40;;;;;;;22.06;49.29;100063.50;5034509;28;20420;-70
2022/08/10 06:07:28;;;;;;;4.43;1.40;;;;;;;21.87;49.41;100073.09;5034618;28;20497;-70
2022/08/10 06:09:57;;;;;;;2.03;1.45;;;;;;;21.75;49.35;100079.09;5034433;28;20115;-71
2022/08/10 06:12:29;;;;;;;3.75;1.42;;;;;;;21.66;49.46;100075.75;5033987;28;20057;-71
2022/08/10 06:15:22;;;;;;;7.00;1.40;;;;;;;21.76;49.35;100077.88;5034215;28;20045;-70
2022/08/10 06:18:10;;;;;;;4.30;1.55;;;;;;;22.19;48.53;100085.44;5033703;28;20041;-70
2022/08/10 06:20:40;;;;;;;1.98;1.13;;;;;;;22.14;48.65;100090.69;5033996;28;20132;-69
2022/08/10 06:23:09;;;;;;;3.75;1.50;;;;;;;22.45;47.91;100092.84;5034017;28;20053;-70
2022/08/10 06:25:37;;;;;;;2.47;1.20;;;;;;;23.08;46.12;100093.03;5033821;28;20075;-70
2022/08/10 06:28:27;;;;;;;2.60;1.38;;;;;;;23.29;46.25;100099.59;5033988;28;20063;-69
2022/08/10 06:30:56;;;;;;;5.45;1.30;;;;;;;24.06;43.94;100097.94;5033969;28;20049;-69
2022/08/10 06:33:25;;;;;;;;;;;;;;;23.54;45.63;100098.78;5033600;28;20563;-70
2022/08/10 06:35:55;;;;;;;3.35;1.40;;;;;;;23.60;45.71;100102.84;5033307;28;20024;-69
2022/08/10 06:38:25;;;;;;;3.13;1.38;;;;;;;24.22;44.65;100101.16;5033496;28;20053;-71
2022/08/10 06:40:57;;;;;;;5.45;1.92;;;;;;;27.59;37.98;100097.97;5033571;28;20132;-71
2022/08/10 06:43:34;;;;;;;2.25;1.42;;;;;;;28.17;36.00;100100.19;5017766;28;20089;-69
2022/08/10 06:46:10;;;;;;;3.90;1.50;;;;;;;27.27;37.46;100098.47;5032195;28;20064;-68
2022/08/10 06:48:56;;;;;;;7.03;2.13;;;;;;;26.46;39.10;100099.53;5028130;28;20081;-69
2022/08/10 06:51:26;;;;;;;7.93;1.63;;;;;;;26.41;39.47;100091.44;5030567;28;20057;-69
2022/08/10 06:54:00;;;;;;;6.88;1.45;;;;;;;26.37;38.86;100096.38;5032678;28;20575;-68
2022/08/10 06:56:34;;;;;;;5.82;1.50;;;;;;;26.04;39.38;100097.16;5033278;28;20140;-67
2022/08/10 06:59:26;;;;;;;4.13;1.42;;;;;;;25.52;39.83;100089.88;5032699;28;20088;-69
2022/08/10 07:01:58;;;;;;;5.90;1.30;;;;;;;25.53;39.74;100091.53;5033071;28;20045;-69
2022/08/10 07:04:30;;;;;;;6.30;1.45;;;;;;;25.61;39.79;100097.97;5032889;28;20057;-70
2022/08/10 07:07:04;;;;;;;3.97;1.60;;;;;;;25.36;40.03;100097.34;5033128;28;20053;-69
2022/08/10 07:09:36;;;;;;;5.40;1.48;;;;;;;25.20;40.46;100097.84;5032780;28;20060;-70
2022/08/10 07:12:08;;;;;;;4.28;1.60;;;;;;;25.20;40.81;100102.72;5032974;28;20140;-70
2022/08/10 07:14:43;;;;;;;3.30;1.38;;;;;;;25.30;40.14;100110.38;5032851;28;20049;-69
2022/08/10 07:17:13;;;;;;;6.20;1.70;;;;;;;25.72;39.69;100102.31;5031430;28;20057;-69
2022/08/10 07:19:46;;;;;;;5.05;1.77;;;;;;;27.00;37.60;100099.66;5032888;28;20099;-70
2022/08/10 07:22:21;;;;;;;2.40;1.50;;;;;;;29.51;33.29;100098.06;5032825;28;20049;-70
2022/08/10 07:25:11;;;;;;;5.97;1.77;;;;;;;29.95;32.24;100095.31;5032768;28;20049;-68
2022/08/10 07:27:40;;;;;;;6.55;1.60;;;;;;;31.76;29.57;100098.06;5024146;28;20175;-69
2022/08/10 07:30:31;;;;;;;7.30;1.80;;;;;;;34.31;25.27;100111.59;5013268;28;20058;-69
2022/08/10 07:33:00;;;;;;;3.53;1.25;;;;;;;33.25;26.75;100100.81;5012720;28;20050;-69
2022/08/10 07:35:27;;;;;;;;;;;;;;;34.10;26.05;100103.88;5013403;28;20084;-69
2022/08/10 07:38:06;;;;;;;3.85;1.45;;;;;;;32.78;27.32;100111.69;5012692;28;19975;-68
2022/08/10 07:40:37;;;;;;;3.38;1.30;;;;;;;29.63;31.18;100118.28;5011059;28;20108;-68
2022/08/10 07:43:06;;;;;;;4.05;1.83;;;;;;;27.88;33.90;100116.25;5012111;28;20144;-68
2022/08/10 07:45:34;;;;;;;;;;;;;;;26.96;35.74;100118.91;5012933;28;20046;-68
2022/08/10 07:48:05;;;;;;;2.80;1.33;;;;;;;27.20;34.88;100114.88;5012392;28;19976;-69
2022/08/10 07:50:36;;;;;;;4.70;1.50;;;;;;;26.92;35.08;100116.09;5040793;28;20055;-69
2022/08/10 07:53:09;;;;;;;4.82;1.40;;;;;;;28.79;31.89;100117.34;5042425;28;20052;-65
2022/08/10 07:55:40;;;;;;;89.00;39.75;;;;;;;27.95;32.62;100108.34;5032037;28;20528;-64
2022/08/10 07:58:33;;;;;;;3.58;1.73;;;;;;;29.75;30.14;100097.50;5040178;28;20131;-65
2022/08/10 08:01:00;;;;;;;2.65;1.63;;;;;;;29.43;29.98;100102.41;5051824;28;20254;-66
2022/08/10 08:03:29;;;;;;;3.50;1.38;;;;;;;32.81;25.55;100093.47;5031345;28;20045;-66
2022/08/10 08:05:58;;;;;;;;;;;;;;;34.83;22.90;100099.69;5032862;28;20037;-66
2022/08/10 08:08:32;;;;;;;2.80;1.38;;;;;;;37.44;20.16;100091.34;5032540;28;19971;-65
2022/08/10 08:11:00;;;;;;;8.00;1.40;;;;;;;38.20;19.00;100098.88;5031765;28;20053;-64
2022/08/10 08:13:29;;;;;;;4.60;1.55;;;;;;;37.34;19.82;100086.19;5032143;28;20315;-66
2022/08/10 08:15:57;;;;;;;14.48;9.30;;;;;;;39.16;18.15;100094.47;5031053;28;20060;-66
2022/08/10 08:18:46;;;;;;;6.55;1.70;;;;;;;43.33;14.72;100085.09;5023032;28;20049;-65
2022/08/10 08:21:34;;;;;;;2.10;1.30;;;;;;;44.98;12.56;100080.25;5031834;28;20107;-65
2022/08/10 08:24:22;;;;;;;6.53;1.63;;;;;;;45.76;11.80;100083.53;5031662;28;20462;-64
2022/08/10 08:27:04;;;;;;;2.60;1.20;;;;;;;46.66;10.92;100083.34;5030736;28;20053;-66
2022/08/10 08:29:34;;;;;;;6.70;1.45;;;;;;;48.04;9.57;100083.66;5032023;28;20042;-63
2022/08/10 08:32:05;;;;;;;5.75;1.70;;;;;;;48.66;9.34;100078.31;5031773;28;20067;-66
2022/08/10 08:34:35;;;;;;;6.53;1.30;;;;;;;48.68;9.64;100060.81;5032226;28;20042;-67
2022/08/10 08:37:04;;;;;;;2.60;1.23;;;;;;;49.10;9.44;100062.13;5031709;28;20045;-68
2022/08/10 08:39:35;;;;;;;2.33;1.33;;;;;;;49.68;9.01;100063.41;5031573;28;20046;-68
2022/08/10 08:42:08;;;;;;;5.40;1.55;;;;;;;47.07;10.14;100066.59;5032187;28;20065;-69
2022/08/10 08:44:56;;;;;;;4.72;1.27;;;;;;;43.98;12.23;100057.28;5031468;28;20524;-67
2022/08/10 08:47:45;;;;;;;4.18;1.23;;;;;;;43.24;12.77;100073.72;5032131;28;20149;-67
2022/08/10 08:50:43;;;;;;;6.38;1.90;;;;;;;43.57;11.99;100067.59;5031736;28;20049;-68
2022/08/10 08:53:31;;;;;;;4.13;1.40;;;;;;;43.82;11.43;100064.13;5029384;28;20073;-72
2022/08/10 08:56:39;;;;;;;2.05;1.50;;;;;;;41.32;13.56;100056.34;5030122;28;20050;-72
2022/08/10 08:59:30;;;;;;;3.42;1.20;;;;;;;38.39;15.66;100053.66;5027919;28;20092;-73
2022/08/10 09:02:39;;;;;;;1.38;1.00;;;;;;;39.36;14.97;100044.88;5034911;28;20049;-71
2022/08/10 09:05:24;;;;;;;3.58;1.25;;;;;;;39.00;15.27;100055.16;5023610;28;20127;-72
2022/08/10 09:08:00;;;;;;;7.25;2.63;;;;;;;37.79;16.47;100051.53;5034851;28;20041;-73
2022/08/10 09:11:03;;;;;;;4.43;2.67;;;;;;;35.55;18.29;100041.59;5034820;28;20159;-73
2022/08/10 09:13:59;;;;;;;4.57;1.13;;;;;;;35.10;18.04;100050.47;5034853;28;20041;-70
2022/08/10 09:16:56;;;;;;;3.75;1.17;;;;;;;35.35;18.23;100053.00;5037626;28;20041;-72
2022/08/10 09:19:42;;;;;;;3.42;1.77;;;;;;;37.85;16.19;100048.69;5027481;28;20508;-72
2022/08/10 09:22:17;;;;;;;5.47;1.98;;;;;;;37.61;16.58;100037.25;5035030;28;20049;-72
2022/08/10 09:25:28;;;;;;;8.98;1.80;;;;;;;38.86;15.77;100032.78;5036611;28;20072;-72
2022/08/10 09:28:07;;;;;;;3.00;1.30;;;;;;;40.15;14.22;100030.28;5048198;28;20056;-72
2022/08/10 09:30:56;;;;;;;3.75;1.40;;;;;;;38.65;15.39;100025.44;5031956;28;20484;-72
2022/08/10 09:34:06;;;;;;;4.60;1.17;;;;;;;36.92;17.22;100027.66;5033903;28;20504;-71
2022/08/10 09:36:59;;;;;;;27.17;14.27;;;;;;;36.19;18.09;100016.72;5023887;28;20046;-73
2022/08/10 09:39:39;;;;;;;2.58;1.70;;;;;;;36.10;18.03;100019.72;5034486;28;20413;-73
2022/08/10 09:43:07;;;;;;;3.00;1.15;;;;;;;37.45;16.63;100019.59;5034322;28;20091;-71
2022/08/10 09:46:01;;;;;;;2.20;1.50;;;;;;;36.17;17.70;100010.63;5017343;28;20132;-72
2022/08/10 09:48:38;;;;;;;5.18;1.23;;;;;;;34.73;18.95;100022.94;5040547;28;20480;-72
2022/08/10 09:51:18;;;;;;;4.07;1.00;;;;;;;33.13;20.71;100030.41;5034918;28;20056;-70
2022/08/10 09:54:33;;;;;;;2.15;1.00;;;;;;;32.25;21.54;100020.69;5034354;28;20065;-71
2022/08/10 09:57:27;;;;;;;4.50;0.85;;;;;;;31.11;22.41;100028.72;5034401;28;20041;-71
2022/08/10 10:00:18;;;;;;;2.88;1.13;;;;;;;30.91;22.81;100030.22;5037018;28;20054;-73
2022/08/10 10:02:57;;;;;;;3.72;1.40;;;;;;;30.72;23.24;100011.09;5039128;28;20051;-71
2022/08/10 10:06:02;;;;;;;1.52;1.05;;;;;;;30.62;23.54;100020.84;5042035;28;20049;-71
2022/08/10 10:08:56;;;;;;;2.80;1.25;;;;;;;29.63;24.63;100020.78;5038986;28;20052;-70
2022/08/10 10:11:39;;;;;;;5.78;0.93;;;;;;;29.24;25.18;100023.00;5054240;28;20057;-71
2022/08/10 10:14:15;;;;;;;3.00;1.08;;;;;;;28.87;25.17;100030.03;5053579;28;20053;-71
2022/08/10 10:17:11;;;;;;;1.80;1.08;;;;;;;28.46;25.86;100024.00;5037856;28;20063;-72
2022/08/10 10:20:10;;;;;;;1.40;0.93;;;;;;;28.57;25.77;100018.84;5037603;28;20041;-71
2022/08/10 10:23:07;;;;;;;1.45;1.02;;;;;;;28.64;25.63;100021.53;5018600;28;20140;-73
2022/08/10 10:25:50;;;;;;;3.80;1.27;;;;;;;28.68;25.53;100018.59;5030955;28;20049;-70
2022/08/10 10:28:47;;;;;;;2.88;1.30;;;;;;;28.61;25.74;100018.75;5032686;28;20046;-67
2022/08/10 10:31:43;;;;;;;3.25;1.20;;;;;;;28.48;26.30;100018.63;5033854;28;20057;-67
2022/08/10 10:34:40;;;;;;;5.95;1.45;;;;;;;28.01;26.99;100008.56;5033712;28;20053;-68
2022/08/10 10:37:10;;;;;;;2.30;1.02;;;;;;;27.54;27.36;100009.81;5033788;28;20061;-69
2022/08/10 10:39:43;;;;;;;9.65;2.22;;;;;;;27.82;26.92;100020.72;5033417;28;20052;-68
2022/08/10 10:42:29;;;;;;;4.28;1.10;;;;;;;28.16;26.22;100018.47;5033690;28;20528;-67
2022/08/10 10:45:20;;;;;;;2.45;1.30;;;;;;;28.30;26.42;100009.59;5033188;28;20417;-69
2022/08/10 10:48:05;;;;;;;1.88;1.20;;;;;;;28.47;26.10;100008.41;5033408;28;20162;-69
2022/08/10 10:51:06;;;;;;;2.10;1.17;;;;;;;28.57;26.15;100006.56;5033108;28;20364;-68
2022/08/10 10:53:43;;;;;;;2.53;1.30;;;;;;;28.45;26.18;100008.03;5032368;28;20049;-68
2022/08/10 10:56:26;;;;;;;2.13;1.30;;;;;;;28.37;26.31;100006.56;5033432;28;20061;-68
2022/08/10 10:59:02;;;;;;;8.43;1.95;;;;;;;28.13;27.00;100005.03;5043876;28;20048;-67
2022/08/10 11:02:03;;;;;;;3.80;1.63;;;;;;;27.87;27.48;100011.69;5033246;28;20054;-68
2022/08/10 11:04:45;;;;;;;4.55;1.20;;;;;;;27.55;28.05;100005.72;5037816;28;20055;-69
2022/08/10 11:07:21;;;;;;;4.82;1.38;;;;;;;27.39;28.49;100006.44;5033112;28;20107;-69
2022/08/10 11:10:06;;;;;;;5.45;2.20;;;;;;;27.14;29.12;100005.19;5033403;28;20120;-67
2022/08/10 11:13:25;;;;;;;7.50;1.45;;;;;;;26.82;29.65;100007.75;5032560;28;20141;-67
2022/08/10 11:16:21;;;;;;;2.72;1.15;;;;;;;26.76;29.66;100019.63;5013113;28;20053;-67
2022/08/10 11:19:16;;;;;;;3.20;1.15;;;;;;;26.91;29.08;100010.88;5021867;28;20041;-67
2022/08/10 11:22:09;;;;;;;2.05;1.33;;;;;;;26.91;28.82;100010.88;5032410;28;20072;-68
2022/08/10 11:25:09;;;;;;;7.20;1.60;;;;;;;26.83;29.15;100005.25;5051672;28;20152;-69
2022/08/10 11:27:52;;;;;;;4.00;1.13;;;;;;;26.64;29.45;100016.56;5036227;28;20052;-69
2022/08/10 11:30:19;;;;;;;3.53;1.27;;;;;;;26.67;29.14;100010.81;5036788;28;20045;-70
2022/08/10 11:33:23;;;;;;;3.58;1.67;;;;;;;26.83;28.96;100010.97;5039150;28;20055;-75
2022/08/10 11:36:00;;;;;;;4.63;1.60;;;;;;;26.65;29.29;100007.56;5042362;28;20100;-75
2022/08/10 11:38:36;;;;;;;6.28;1.20;;;;;;;26.56;29.70;100001.53;5030733;28;20405;-72
2022/08/10 11:41:44;;;;;;;4.95;1.20;;;;;;;26.39;29.40;100004.66;5028138;28;20140;-72
2022/08/10 11:44:48;;;;;;;2.63;1.25;;;;;;;26.13;29.61;100009.06;5028255;28;20374;-69
2022/08/10 11:47:32;;;;;;;4.97;1.27;;;;;;;25.93;29.43;100013.75;5025247;28;20064;-69
2022/08/10 11:50:07;;;;;;;4.97;1.80;;;;;;;26.03;29.74;100009.19;5031285;28;20045;-70
2022/08/10 11:52:44;;;;;;;6.70;1.30;;;;;;;26.42;29.17;100012.34;5031164;28;20042;-71
2022/08/10 11:55:20;;;;;;;3.55;1.30;;;;;;;26.56;28.72;100003.59;5030041;28;20053;-73
2022/08/10 11:57:54;;;;;;;4.57;1.75;;;;;;;26.59;28.70;99999.91;5029669;28;20042;-69
2022/08/10 12:00:24;;;;;;;5.07;2.35;;;;;;;26.83;28.44;99997.94;5031022;28;20049;-70
2022/08/10 12:03:02;;;;;;;2.25;1.35;;;;;;;26.91;28.62;100008.00;5029952;28;20103;-68
2022/08/10 12:05:34;;;;;;;3.30;1.40;;;;;;;26.74;29.01;100007.03;5033255;28;20091;-70
2022/08/10 12:08:24;;;;;;;2.40;1.27;;;;;;;26.34;29.48;100005.94;5030462;28;20060;-68
2022/08/10 12:11:16;;;;;;;3.45;1.30;;;;;;;26.28;29.05;100003.97;5031981;28;20068;-68
2022/08/10 12:14:08;;;;;;;;;;;;;;;26.08;29.29;100003.81;5025960;28;20046;-70
2022/08/10 12:16:58;;;;;;;1.48;1.10;;;;;;;26.01;29.44;100005.94;5028307;28;20339;-73
2022/08/10 12:19:48;;;;;;;6.93;1.20;;;;;;;25.95;28.97;100010.47;5027136;28;20124;-74
2022/08/10 12:22:40;;;;;;;8.00;1.00;;;;;;;26.12;28.71;100016.00;5027637;28;20069;-69
2022/08/10 12:25:15;;;;;;;3.40;1.02;;;;;;;26.33;28.54;100020.63;5033176;28;20053;-71
2022/08/10 12:28:25;;;;;;;2.22;1.40;;;;;;;26.49;28.52;100017.94;5038978;28;20448;-75